Time;durP1;ratioP1;P1;durP2;ratioP2;P2;SDS_P1;SDS_P2;PMS_P1;PMS_P2;Temp;Humidity;BMP_temperature;BMP_pressure;BME280_temperature;BME280_humidity;BME280_pressure;Samples;Min_cycle;Max_cycle;Signal;HPM_P1;HPM_P2
2022/10/20 00:00:25;;;;;;;5.05;1.85;;;;;;;4.54;100.00;102502.63;4956263;29;20126;-67
2022/10/20 00:02:50;;;;;;;2.90;1.70;;;;;;;4.58;100.00;102504.94;4939162;29;20023;-67
2022/10/20 00:05:16;;;;;;;3.28;1.90;;;;;;;4.61;100.00;102493.19;4956009;28;20121;-67
2022/10/20 00:07:41;;;;;;;2.95;1.80;;;;;;;4.62;100.00;102495.72;4956115;29;20094;-66
2022/10/20 00:10:07;;;;;;;2.53;1.70;;;;;;;4.62;100.00;102498.38;4938248;29;20043;-66
2022/10/20 00:12:32;;;;;;;3.53;1.63;;;;;;;4.59;100.00;102493.28;4956533;29;20075;-67
2022/10/20 00:14:57;;;;;;;3.15;1.58;;;;;;;4.60;100.00;102500.34;4956516;29;20035;-66
2022/10/20 00:17:23;;;;;;;2.78;1.83;;;;;;;4.59;100.00;102497.78;4923453;29;20134;-67
2022/10/20 00:19:49;;;;;;;4.38;1.70;;;;;;;4.43;100.00;102468.78;4939221;29;20035;-66
2022/10/20 00:22:15;;;;;;;3.72;1.50;;;;;;;4.64;100.00;102496.47;4956172;29;20035;-65
2022/10/20 00:24:40;;;;;;;3.70;1.75;;;;;;;4.68;100.00;102494.41;4955913;29;20035;-66
2022/10/20 00:27:06;;;;;;;5.20;1.90;;;;;;;4.72;100.00;102485.19;4955011;29;20031;-66
2022/10/20 00:29:31;;;;;;;4.03;1.65;;;;;;;4.76;100.00;102483.97;4955496;29;20510;-66
2022/10/20 00:31:57;;;;;;;5.03;1.70;;;;;;;4.75;100.00;102484.09;4955746;29;20110;-66
2022/10/20 00:34:22;;;;;;;3.60;1.70;;;;;;;4.78;100.00;102476.72;4938413;29;20042;-66
2022/10/20 00:36:48;;;;;;;4.20;1.50;;;;;;;4.78;100.00;102483.88;4938217;29;20046;-66
2022/10/20 00:39:13;;;;;;;4.68;1.88;;;;;;;4.79;100.00;102474.88;4955660;29;20031;-66
2022/10/20 00:41:38;;;;;;;5.93;1.52;;;;;;;4.77;100.00;102471.47;4955917;29;20050;-66
2022/10/20 00:44:42;;;;;;;5.30;1.80;;;;;;;4.78;100.00;102478.53;4938546;29;20126;-66
2022/10/20 00:47:42;;;;;;;3.58;1.42;;;;;;;4.75;100.00;102476.09;4955372;28;20051;-66
2022/10/20 00:50:16;;;;;;;2.38;1.60;;;;;;;4.71;100.00;102484.34;4938440;29;20509;-66
2022/10/20 00:52:44;;;;;;;5.40;1.67;;;;;;;4.75;100.00;102476.09;4938416;29;20098;-66
2022/10/20 00:55:13;;;;;;;2.60;1.65;;;;;;;4.68;100.00;102473.06;4955583;29;20027;-66
2022/10/20 00:57:41;;;;;;;3.10;1.30;;;;;;;4.69;100.00;102470.28;4955383;29;20054;-67
2022/10/20 01:00:07;;;;;;;3.72;1.63;;;;;;;4.71;100.00;102455.00;4955401;29;20077;-66
2022/10/20 01:02:34;;;;;;;5.15;1.70;;;;;;;4.75;100.00;102460.94;4938099;29;20086;-67
2022/10/20 01:05:00;;;;;;;2.15;1.63;;;;;;;4.61;100.00;102435.38;4955131;28;20047;-66
2022/10/20 01:07:25;;;;;;;4.43;1.90;;;;;;;4.72;100.00;102453.19;4955007;29;20058;-66
2022/10/20 01:09:51;;;;;;;3.22;1.60;;;;;;;4.83;100.00;102463.84;4936987;29;20513;-66
2022/10/20 01:12:57;;;;;;;2.90;1.50;;;;;;;4.86;100.00;102454.75;4937763;29;20031;-67
2022/10/20 01:15:40;;;;;;;3.00;2.08;;;;;;;4.90;100.00;102450.88;4861534;29;20527;-67
2022/10/20 01:18:17;;;;;;;5.05;1.83;;;;;;;4.88;100.00;102453.69;4947738;29;20061;-67
2022/10/20 01:21:17;;;;;;;5.50;1.65;;;;;;;4.81;100.00;102432.97;4955337;29;20043;-67
2022/10/20 01:24:02;;;;;;;6.57;1.80;;;;;;;4.91;100.00;102449.94;4940834;29;20034;-67
2022/10/20 01:26:33;;;;;;;;;;;;;;;4.92;100.00;102441.78;4955147;29;20031;-65
2022/10/20 01:29:20;;;;;;;3.30;1.70;;;;;;;4.92;100.00;102447.13;4936930;29;19918;-67
2022/10/20 01:32:07;;;;;;;4.28;1.90;;;;;;;4.94;100.00;102449.69;4920047;29;20047;-67
2022/10/20 01:34:45;;;;;;;2.03;1.40;;;;;;;4.92;100.00;102447.13;4937346;29;20449;-67
2022/10/20 01:37:24;;;;;;;3.20;1.80;;;;;;;4.96;100.00;102453.06;4954630;29;20074;-66
2022/10/20 01:40:00;;;;;;;2.42;1.60;;;;;;;4.97;100.00;102452.13;4955165;29;20086;-67
2022/10/20 01:42:28;;;;;;;5.25;1.77;;;;;;;4.99;100.00;102454.66;4938673;29;20031;-67
2022/10/20 01:44:57;;;;;;;2.85;1.50;;;;;;;4.82;100.00;102411.50;4954617;28;20035;-66
2022/10/20 01:47:27;;;;;;;3.42;1.70;;;;;;;5.01;100.00;102439.38;4937528;29;20039;-67
2022/10/20 01:49:55;;;;;;;4.60;1.75;;;;;;;4.81;100.00;102401.81;4954126;29;20049;-67
2022/10/20 01:52:22;;;;;;;3.53;1.65;;;;;;;5.04;100.00;102437.31;4937035;29;20053;-66
2022/10/20 01:54:48;;;;;;;3.95;1.77;;;;;;;5.04;100.00;102439.97;4954275;29;20039;-67
2022/10/20 01:57:16;;;;;;;5.97;1.77;;;;;;;5.07;100.00;102438.88;4953906;29;20118;-67
2022/10/20 02:00:03;;;;;;;4.97;2.00;;;;;;;5.00;100.00;102425.19;4936862;29;20632;-66
2022/10/20 02:03:00;;;;;;;5.63;1.85;;;;;;;5.06;100.00;102439.84;4954340;28;20078;-66
2022/10/20 02:05:34;;;;;;;2.08;1.63;;;;;;;5.05;100.00;102422.16;4954345;29;20035;-67
2022/10/20 02:08:11;;;;;;;4.05;2.00;;;;;;;5.03;100.00;102430.25;4954347;28;20482;-67
2022/10/20 02:10:45;;;;;;;5.72;1.92;;;;;;;5.04;100.00;102428.47;4954157;28;20379;-67
2022/10/20 02:13:11;;;;;;;3.57;1.97;;;;;;;5.07;100.00;102429.06;4954275;29;20027;-67
2022/10/20 02:15:42;;;;;;;3.63;1.85;;;;;;;5.08;100.00;102429.91;4936947;29;20114;-67
2022/10/20 02:18:10;;;;;;;2.65;1.63;;;;;;;5.07;100.00;102421.06;4936795;29;20069;-67
2022/10/20 02:20:36;;;;;;;3.95;1.70;;;;;;;5.12;100.00;102436.69;4954167;28;20035;-67
2022/10/20 02:23:03;;;;;;;3.75;2.20;;;;;;;4.96;100.00;102405.03;4936865;28;20042;-67
2022/10/20 02:25:30;;;;;;;6.07;2.03;;;;;;;5.12;100.00;102426.84;4954094;29;20095;-67
2022/10/20 02:27:59;;;;;;;5.43;2.00;;;;;;;5.12;100.00;102421.50;4953935;29;20046;-67
2022/10/20 02:30:24;;;;;;;5.38;1.85;;;;;;;4.85;100.00;102379.25;4954009;29;20042;-67
2022/10/20 02:32:51;;;;;;;6.28;2.15;;;;;;;5.12;100.00;102421.50;4936641;29;20035;-67
2022/10/20 02:35:30;;;;;;;5.15;2.17;;;;;;;5.12;100.00;102418.00;4953805;29;20034;-67
2022/10/20 02:38:15;;;;;;;3.78;2.00;;;;;;;5.12;100.00;102415.34;4953929;29;20212;-67
2022/10/20 02:40:41;;;;;;;5.03;2.08;;;;;;;5.12;100.00;102412.66;4936763;29;20035;-66
2022/10/20 02:43:06;;;;;;;5.32;1.90;;;;;;;5.14;100.00;102411.59;4953596;29;20179;-67
2022/10/20 02:45:31;;;;;;;3.15;1.92;;;;;;;5.15;100.00;102410.59;4936460;29;20035;-67
2022/10/20 02:47:57;;;;;;;3.40;2.00;;;;;;;5.07;100.00;102388.19;4953662;29;20047;-67
2022/10/20 02:50:23;;;;;;;4.63;1.92;;;;;;;5.18;100.00;102407.69;4920409;29;20047;-67
2022/10/20 02:52:48;;;;;;;7.45;2.00;;;;;;;5.19;100.00;102404.03;4953274;29;20047;-67
2022/10/20 02:55:14;;;;;;;3.72;1.80;;;;;;;5.19;100.00;102404.03;4952969;29;20039;-69
2022/10/20 02:57:39;;;;;;;5.18;1.90;;;;;;;5.25;100.00;102408.03;4920058;29;20126;-67
2022/10/20 03:00:06;;;;;;;3.13;1.70;;;;;;;5.28;100.00;102406.94;4953254;29;20035;-67
2022/10/20 03:02:31;;;;;;;3.33;2.00;;;;;;;5.27;100.00;102395.44;4935998;29;20050;-67
2022/10/20 03:04:56;;;;;;;3.30;2.00;;;;;;;5.32;100.00;102409.22;4936071;29;20498;-67
2022/10/20 03:07:22;;;;;;;7.13;1.98;;;;;;;5.34;100.00;102403.78;4952984;29;20035;-67
2022/10/20 03:09:47;;;;;;;2.50;1.70;;;;;;;4.68;100.00;102289.94;4935951;29;20049;-67
2022/10/20 03:12:13;;;;;;;8.85;2.08;;;;;;;5.31;100.00;102390.69;4953246;29;20117;-67
2022/10/20 03:14:41;;;;;;;3.80;1.88;;;;;;;5.42;100.00;102406.66;4952896;29;20064;-68
2022/10/20 03:17:07;;;;;;;4.95;1.90;;;;;;;5.44;100.00;102402.03;4935674;29;20043;-67
2022/10/20 03:19:33;;;;;;;4.22;1.80;;;;;;;5.50;100.00;102406.03;4935732;29;20090;-67
2022/10/20 03:22:04;;;;;;;1.92;1.55;;;;;;;4.50;100.00;102240.75;4952978;28;20055;-67
2022/10/20 03:24:30;;;;;;;3.80;1.85;;;;;;;5.53;100.00;102400.41;4936095;29;20145;-67
2022/10/20 03:26:55;;;;;;;3.22;1.88;;;;;;;5.42;100.00;102383.47;4919921;29;20514;-65
2022/10/20 03:29:20;;;;;;;3.38;1.95;;;;;;;5.59;100.00;102403.44;4935091;29;20055;-68
2022/10/20 03:31:46;;;;;;;4.97;2.10;;;;;;;5.60;100.00;102412.31;4935414;28;20043;-68
2022/10/20 03:34:12;;;;;;;3.70;1.98;;;;;;;5.58;100.00;102414.25;4955365;28;20039;-66
2022/10/20 03:36:37;;;;;;;4.30;2.42;;;;;;;5.55;100.00;102410.00;4956788;28;20174;-66
2022/10/20 03:39:03;;;;;;;4.45;2.67;;;;;;;5.56;100.00;102405.50;4956850;29;20106;-66
2022/10/20 03:41:28;;;;;;;5.32;2.60;;;;;;;5.54;100.00;102405.66;4939475;29;20320;-66
2022/10/20 03:43:54;;;;;;;4.97;2.60;;;;;;;5.53;100.00;102401.28;4939497;29;20038;-66
2022/10/20 03:46:19;;;;;;;3.42;2.20;;;;;;;5.54;100.00;102405.66;4920207;29;20402;-65
2022/10/20 03:48:44;;;;;;;4.88;2.65;;;;;;;5.53;100.00;102406.63;4913560;29;20075;-66
2022/10/20 03:51:12;;;;;;;3.60;2.13;;;;;;;5.54;100.00;102402.97;4953180;29;20521;-68
2022/10/20 03:53:37;;;;;;;3.40;2.30;;;;;;;5.57;100.00;102399.22;4940893;29;20061;-66
2022/10/20 03:56:11;;;;;;;6.05;2.28;;;;;;;5.59;100.00;102399.91;4956497;29;20506;-65
2022/10/20 03:58:36;;;;;;;3.08;2.10;;;;;;;5.62;100.00;102392.50;4923864;29;20114;-65
2022/10/20 04:01:05;;;;;;;5.25;2.30;;;;;;;5.68;100.00;102398.31;4956359;29;20050;-65
2022/10/20 04:03:30;;;;;;;3.85;2.08;;;;;;;5.73;100.00;102398.75;4956277;29;20536;-68
2022/10/20 04:05:56;;;;;;;4.57;2.40;;;;;;;5.76;100.00;102402.06;4956334;29;20505;-66
2022/10/20 04:08:21;;;;;;;2.85;2.47;;;;;;;5.65;100.00;102375.38;4938942;29;20070;-67
2022/10/20 04:10:46;;;;;;;4.95;2.20;;;;;;;5.84;100.00;102404.91;4956229;29;20062;-64
2022/10/20 04:13:12;;;;;;;6.50;2.50;;;;;;;5.89;100.00;102410.72;4955754;29;20031;-65
2022/10/20 04:15:37;;;;;;;5.70;2.50;;;;;;;5.93;100.00;102403.34;4939383;29;20031;-66
2022/10/20 04:18:02;;;;;;;6.32;2.10;;;;;;;5.95;100.00;102403.19;4938912;29;20067;-66
2022/10/20 04:20:28;;;;;;;4.00;2.03;;;;;;;5.98;100.00;102401.09;4956481;29;20094;-67
2022/10/20 04:22:53;;;;;;;4.55;2.38;;;;;;;6.01;100.00;102395.50;4956111;29;20036;-66
2022/10/20 04:25:19;;;;;;;4.53;2.13;;;;;;;6.02;100.00;102391.84;4938459;29;20127;-67
2022/10/20 04:27:44;;;;;;;4.20;2.00;;;;;;;6.03;100.00;102396.22;4938484;29;20499;-66
2022/10/20 04:30:10;;;;;;;4.45;2.08;;;;;;;6.02;100.00;102391.00;4955911;29;20511;-67
2022/10/20 04:32:35;;;;;;;2.58;1.80;;;;;;;6.00;100.00;102398.31;4955894;29;20031;-67
2022/10/20 04:35:02;;;;;;;6.78;2.08;;;;;;;5.99;100.00;102385.91;4955867;29;20035;-66
2022/10/20 04:37:28;;;;;;;3.22;1.90;;;;;;;5.98;100.00;102385.06;4955709;29;20039;-66
2022/10/20 04:39:56;;;;;;;5.78;2.30;;;;;;;5.96;100.00;102389.72;4938715;29;20047;-66
2022/10/20 04:42:21;;;;;;;4.28;2.10;;;;;;;5.91;100.00;102369.66;4938797;29;20035;-65
2022/10/20 04:44:47;;;;;;;4.65;2.13;;;;;;;5.95;100.00;102374.63;4936942;29;20047;-66
2022/10/20 04:47:12;;;;;;;2.50;1.90;;;;;;;5.93;100.00;102376.63;4955460;29;20533;-66
2022/10/20 04:49:39;;;;;;;5.95;1.77;;;;;;;5.88;100.00;102371.63;4955305;28;20039;-67
2022/10/20 04:52:05;;;;;;;3.92;1.65;;;;;;;5.93;100.00;102376.63;4955509;29;20506;-67
2022/10/20 04:54:30;;;;;;;4.35;2.03;;;;;;;5.93;100.00;102379.28;4951323;29;20045;-67
2022/10/20 04:56:56;;;;;;;4.07;2.03;;;;;;;5.91;100.00;102378.53;4955425;28;20034;-67
2022/10/20 04:59:21;;;;;;;3.47;1.98;;;;;;;5.88;100.00;102384.13;4955226;29;20078;-67
2022/10/20 05:01:47;;;;;;;3.95;1.83;;;;;;;5.85;100.00;102371.03;4922435;29;20042;-67
2022/10/20 05:04:20;;;;;;;3.55;1.90;;;;;;;5.77;100.00;102362.84;4938118;29;20031;-67
2022/10/20 05:06:46;;;;;;;3.65;2.13;;;;;;;5.83;100.00;102375.66;4939360;29;20035;-66
2022/10/20 05:09:13;;;;;;;4.18;1.95;;;;;;;5.85;100.00;102377.22;4937875;29;20046;-66
2022/10/20 05:11:39;;;;;;;3.20;1.92;;;;;;;5.87;100.00;102374.44;4954899;29;20031;-66
2022/10/20 05:14:04;;;;;;;5.15;2.00;;;;;;;5.88;100.00;102371.63;4937904;29;20035;-66
2022/10/20 05:16:30;;;;;;;5.03;1.90;;;;;;;5.70;100.00;102334.94;4937960;29;20031;-67
2022/10/20 05:18:56;;;;;;;4.00;2.00;;;;;;;5.89;100.00;102365.31;4954955;29;20046;-66
2022/10/20 05:21:28;;;;;;;4.40;2.10;;;;;;;5.89;100.00;102357.31;4937763;29;20424;-67
2022/10/20 05:24:04;;;;;;;4.13;2.20;;;;;;;5.89;100.00;102357.31;4955013;29;20114;-67
2022/10/20 05:26:33;;;;;;;4.50;2.05;;;;;;;5.88;100.00;102354.75;4954959;29;20127;-66
2022/10/20 05:29:01;;;;;;;6.35;2.10;;;;;;;5.88;100.00;102362.75;4954697;29;20122;-66
2022/10/20 05:31:26;;;;;;;3.45;2.08;;;;;;;5.86;100.00;102354.00;4954266;29;20047;-67
2022/10/20 05:33:53;;;;;;;5.00;2.10;;;;;;;5.88;100.00;102360.94;4954989;29;20565;-66
2022/10/20 05:36:21;;;;;;;5.10;2.38;;;;;;;5.87;100.00;102358.41;4937476;29;20387;-67
2022/10/20 05:38:47;;;;;;;5.18;2.30;;;;;;;5.84;100.00;102364.84;4937222;29;20034;-66
2022/10/20 05:41:17;;;;;;;5.18;2.30;;;;;;;5.83;100.00;102356.97;4954447;29;20031;-66
2022/10/20 05:43:48;;;;;;;7.50;2.58;;;;;;;5.82;100.00;102360.59;4954766;29;20351;-66
2022/10/20 05:46:14;;;;;;;7.07;2.45;;;;;;;5.79;100.00;102361.69;4954554;29;20450;-66
2022/10/20 05:48:39;;;;;;;8.63;3.03;;;;;;;5.77;100.00;102357.50;4954876;29;20035;-67
2022/10/20 05:51:11;;;;;;;4.78;2.50;;;;;;;5.69;100.00;102344.75;4937761;29;20027;-66
2022/10/20 05:53:38;;;;;;;11.88;2.83;;;;;;;5.72;100.00;102344.50;4954368;29;20034;-67
2022/10/20 05:56:05;;;;;;;5.97;2.70;;;;;;;5.73;100.00;102342.66;4921707;29;20399;-67
2022/10/20 05:58:31;;;;;;;5.05;2.80;;;;;;;5.72;100.00;102344.50;4937248;29;20478;-67
2022/10/20 06:01:08;;;;;;;5.10;2.92;;;;;;;5.71;100.00;102349.97;4954402;29;20035;-66
2022/10/20 06:03:36;;;;;;;6.60;3.00;;;;;;;5.60;100.00;102327.72;4936767;29;20031;-67
2022/10/20 06:06:03;;;;;;;6.47;3.50;;;;;;;5.50;100.00;102310.78;4927744;29;20078;-68
2022/10/20 06:08:32;;;;;;;4.55;2.80;;;;;;;5.70;100.00;102337.63;4937006;29;20105;-67
2022/10/20 06:11:05;;;;;;;6.15;3.05;;;;;;;5.72;100.00;102341.00;4936830;29;20043;-66
2022/10/20 06:13:31;;;;;;;12.35;3.13;;;;;;;5.56;100.00;102314.72;4954193;28;20074;-69
2022/10/20 06:16:14;;;;;;;7.45;3.45;;;;;;;5.72;100.00;102344.50;4953957;29;20030;-68
2022/10/20 06:18:41;;;;;;;7.97;3.67;;;;;;;5.74;100.00;102341.72;4953955;29;20031;-66
2022/10/20 06:21:18;;;;;;;6.80;3.17;;;;;;;5.74;100.00;102339.03;4953879;29;20110;-65
2022/10/20 06:23:44;;;;;;;6.88;3.38;;;;;;;5.77;100.00;102342.31;4921597;29;20486;-66
2022/10/20 06:26:31;;;;;;;6.05;3.53;;;;;;;5.82;100.00;102334.72;4936482;29;20066;-67
2022/10/20 06:28:57;;;;;;;10.07;3.90;;;;;;;5.85;100.00;102338.97;4953499;29;20146;-67
2022/10/20 06:31:23;;;;;;;7.72;3.25;;;;;;;5.85;100.00;102330.97;4936316;29;20118;-67
2022/10/20 06:33:50;;;;;;;10.52;3.78;;;;;;;5.85;100.00;102329.13;4936623;29;20362;-67
2022/10/20 06:36:16;;;;;;;6.30;3.67;;;;;;;5.86;100.00;102325.50;4953753;29;20039;-67
2022/10/20 06:38:42;;;;;;;8.65;4.13;;;;;;;5.83;100.00;102333.78;4936383;29;20118;-67
2022/10/20 06:41:17;;;;;;;7.28;3.85;;;;;;;5.82;100.00;102328.53;4936055;28;20165;-67
2022/10/20 06:43:43;;;;;;;6.72;3.63;;;;;;;5.68;100.00;102307.50;4938052;29;20023;-65
2022/10/20 06:46:15;;;;;;;6.93;4.00;;;;;;;5.88;100.00;102336.03;4932188;29;20406;-66
2022/10/20 06:48:41;;;;;;;7.28;3.80;;;;;;;5.88;100.00;102330.69;4934166;29;20558;-66
2022/10/20 06:51:13;;;;;;;9.73;3.92;;;;;;;5.91;100.00;102326.94;4952471;28;20114;-66
2022/10/20 06:53:40;;;;;;;8.75;3.67;;;;;;;5.94;100.00;102329.38;4952152;29;20023;-66
2022/10/20 06:56:18;;;;;;;8.60;4.20;;;;;;;5.98;100.00;102328.97;4952530;29;20119;-66
2022/10/20 06:58:46;;;;;;;6.93;4.18;;;;;;;6.04;100.00;102330.28;4952530;29;20031;-66
2022/10/20 07:01:31;;;;;;;10.05;4.30;;;;;;;6.09;100.00;102331.56;4919959;29;20039;-66
2022/10/20 07:04:02;;;;;;;7.20;3.83;;;;;;;6.17;100.00;102322.03;4939619;29;20446;-68
2022/10/20 07:06:33;;;;;;;5.30;4.10;;;;;;;6.25;100.00;102332.91;4935939;29;20467;-66
2022/10/20 07:09:02;;;;;;;10.55;4.38;;;;;;;6.32;100.00;102334.06;4952226;28;20239;-66
2022/10/20 07:11:30;;;;;;;9.75;3.97;;;;;;;6.37;100.00;102333.69;4918621;29;20036;-66
2022/10/20 07:13:57;;;;;;;5.85;3.90;;;;;;;6.48;100.00;102330.91;4952990;29;20031;-66
2022/10/20 07:16:24;;;;;;;9.10;4.20;;;;;;;6.54;100.00;102325.84;4935837;29;20027;-66
2022/10/20 07:19:10;;;;;;;5.95;3.20;;;;;;;6.63;100.00;102334.06;4935761;29;20035;-66
2022/10/20 07:21:37;;;;;;;9.52;3.92;;;;;;;6.71;100.00;102337.72;4893324;29;20044;-66
2022/10/20 07:24:04;;;;;;;8.27;3.60;;;;;;;6.78;100.00;102340.72;4862595;29;20040;-66
2022/10/20 07:26:32;;;;;;;9.23;3.60;;;;;;;6.85;100.00;102349.88;4893766;29;20070;-66
2022/10/20 07:29:00;;;;;;;7.10;3.65;;;;;;;6.94;100.00;102350.91;4877711;29;20083;-66
2022/10/20 07:31:36;;;;;;;6.28;3.67;;;;;;;7.02;100.00;102354.59;4893345;29;20116;-67
2022/10/20 07:34:03;;;;;;;5.20;2.78;;;;;;;7.13;100.00;102358.13;4878157;29;20032;-66
2022/10/20 07:36:31;;;;;;;5.53;2.97;;;;;;;7.22;100.00;102357.31;4874919;29;20045;-66
2022/10/20 07:38:59;;;;;;;6.07;2.80;;;;;;;7.32;100.00;102359.97;4878225;29;20088;-66
2022/10/20 07:41:26;;;;;;;4.72;2.50;;;;;;;7.41;100.00;102353.78;4893474;29;20069;-66
2022/10/20 07:43:52;;;;;;;5.43;2.22;;;;;;;7.36;100.00;102332.78;4893573;29;20044;-66
2022/10/20 07:46:18;;;;;;;4.53;2.10;;;;;;;7.56;100.00;102357.72;4893656;29;20044;-66
2022/10/20 07:48:43;;;;;;;4.00;2.10;;;;;;;7.59;100.00;102361.97;4893673;29;20044;-66
2022/10/20 07:51:18;;;;;;;3.60;2.22;;;;;;;7.70;100.00;102364.50;4877864;29;20169;-66
2022/10/20 07:53:44;;;;;;;3.35;2.00;;;;;;;7.73;100.00;102353.50;4936007;29;20067;-66
2022/10/20 07:56:10;;;;;;;3.95;1.90;;;;;;;7.82;100.00;102366.03;4952629;29;20081;-66
2022/10/20 07:58:38;;;;;;;4.10;1.77;;;;;;;7.89;100.00;102364.47;4935383;29;20043;-66
2022/10/20 08:01:04;;;;;;;4.78;2.15;;;;;;;7.92;100.00;102360.66;4935319;29;20109;-66
2022/10/20 08:03:30;;;;;;;4.38;2.15;;;;;;;7.77;100.00;102328.09;4952476;29;20567;-66
2022/10/20 08:05:55;;;;;;;7.63;2.17;;;;;;;7.84;100.00;102331.03;4952747;29;20031;-66
2022/10/20 08:08:21;;;;;;;3.70;2.00;;;;;;;8.10;100.00;102356.25;4935504;29;20042;-66
2022/10/20 08:10:46;;;;;;;5.57;2.00;;;;;;;8.17;100.00;102359.19;4952394;28;20494;-66
2022/10/20 08:13:11;;;;;;;5.28;1.80;;;;;;;8.23;100.00;102350.56;4952762;29;20031;-66
2022/10/20 08:15:37;;;;;;;3.67;1.80;;;;;;;8.25;100.00;102348.59;4935313;29;20073;-66
2022/10/20 08:18:03;;;;;;;4.80;1.95;;;;;;;8.34;100.00;102357.59;4919489;29;20151;-67
2022/10/20 08:20:28;;;;;;;4.65;1.70;;;;;;;8.41;100.00;102354.22;4955176;28;20409;-66
2022/10/20 08:22:54;;;;;;;4.85;1.90;;;;;;;8.45;100.00;102341.34;4954008;29;20106;-67
2022/10/20 08:25:20;;;;;;;4.03;1.73;;;;;;;8.50;100.00;102349.78;4936597;29;20027;-67
2022/10/20 08:27:46;;;;;;;4.72;1.52;;;;;;;8.53;100.00;102343.28;4936673;29;20476;-67
2022/10/20 08:30:11;;;;;;;6.15;1.65;;;;;;;8.46;100.00;102314.38;4936769;29;20040;-67
2022/10/20 08:32:36;;;;;;;5.40;1.60;;;;;;;8.68;100.00;102336.47;4917735;29;20284;-67
2022/10/20 08:35:02;;;;;;;3.55;1.50;;;;;;;8.68;100.00;102331.09;4948924;29;20055;-67
2022/10/20 08:37:35;;;;;;;3.53;1.65;;;;;;;8.78;100.00;102339.94;4954995;28;20581;-67
2022/10/20 08:40:02;;;;;;;2.47;1.35;;;;;;;8.83;100.00;102334.94;4955682;29;20054;-67
2022/10/20 08:42:27;;;;;;;3.67;1.30;;;;;;;8.88;100.00;102338.03;4938139;29;20521;-67
2022/10/20 08:44:58;;;;;;;3.85;1.50;;;;;;;8.94;100.00;102336.59;4955836;28;20043;-67
2022/10/20 08:47:28;;;;;;;2.28;1.20;;;;;;;8.94;100.00;102333.91;4955739;29;20082;-67
2022/10/20 08:49:54;;;;;;;8.07;1.20;;;;;;;8.77;100.00;102299.81;4955690;29;20060;-67
2022/10/20 08:52:22;;;;;;;2.97;1.33;;;;;;;9.03;100.00;102338.34;4955460;29;20067;-67
2022/10/20 08:54:52;;;;;;;5.47;1.17;;;;;;;8.93;100.00;102316.09;4955532;29;20371;-67
2022/10/20 08:57:30;;;;;;;4.30;1.35;;;;;;;9.13;100.00;102339.13;4955498;28;20105;-69
2022/10/20 09:00:06;;;;;;;4.00;1.10;;;;;;;9.16;100.00;102338.81;4955577;29;20034;-67
2022/10/20 09:02:33;;;;;;;3.30;1.15;;;;;;;9.24;100.00;102335.41;4955454;28;20034;-67
2022/10/20 09:04:59;;;;;;;1.70;1.10;;;;;;;9.20;100.00;102331.31;4937724;29;20031;-68
2022/10/20 09:07:36;;;;;;;1.25;0.90;;;;;;;9.28;100.00;102335.94;4955238;29;20035;-66
2022/10/20 09:10:24;;;;;;;3.60;1.20;;;;;;;9.32;100.00;102329.25;4955236;28;20113;-66
2022/10/20 09:12:51;;;;;;;4.65;1.10;;;;;;;9.35;100.00;102327.09;4939963;29;20098;-66
2022/10/20 09:15:17;;;;;;;4.55;1.10;;;;;;;9.43;100.00;102325.47;4937904;29;20027;-66
2022/10/20 09:17:50;;;;;;;2.60;1.00;;;;;;;9.52;100.00;102321.88;4891071;29;20470;-66
2022/10/20 09:20:21;;;;;;;4.35;1.00;;;;;;;9.54;100.00;102319.88;4954963;29;20065;-67
2022/10/20 09:22:47;;;;;;;3.88;1.30;;;;;;;9.65;100.00;102322.31;4937515;29;20054;-66
2022/10/20 09:25:22;;;;;;;4.25;0.90;;;;;;;9.66;100.00;102307.88;4937635;29;20066;-66
2022/10/20 09:27:49;;;;;;;1.48;1.00;;;;;;;9.70;100.00;102324.53;4919019;29;20062;-67
2022/10/20 09:30:29;;;;;;;2.13;0.80;;;;;;;9.68;100.00;102315.78;4952242;29;20474;-67
2022/10/20 09:32:55;;;;;;;2.42;0.90;;;;;;;9.69;100.00;102325.53;4948239;29;20186;-67
2022/10/20 09:35:34;;;;;;;6.13;1.05;;;;;;;9.72;100.00;102317.16;4937437;29;20070;-66
2022/10/20 09:38:08;;;;;;;2.88;1.00;;;;;;;9.72;100.00;102315.31;4954663;29;20098;-67
2022/10/20 09:40:34;;;;;;;3.20;1.15;;;;;;;9.75;100.00;102320.38;4954765;29;20197;-67
2022/10/20 09:43:14;;;;;;;4.18;0.98;;;;;;;9.79;100.00;102318.22;4921589;29;20114;-67
2022/10/20 09:45:51;;;;;;;1.02;0.70;;;;;;;9.84;100.00;102323.97;4937236;29;20090;-67
2022/10/20 09:48:20;;;;;;;2.80;0.82;;;;;;;9.92;100.00;102313.28;4954512;28;20114;-65
2022/10/20 09:50:53;;;;;;;4.80;0.80;;;;;;;9.97;100.00;102312.81;4937044;28;20402;-66
2022/10/20 09:53:24;;;;;;;3.03;0.70;;;;;;;10.00;100.00;102309.78;4954427;29;20031;-66
2022/10/20 09:55:50;;;;;;;3.75;0.70;;;;;;;10.04;100.00;102303.94;4954567;28;20034;-67
2022/10/20 09:58:40;;;;;;;2.80;0.85;;;;;;;10.04;100.00;102303.94;4954076;29;20124;-67
2022/10/20 10:01:20;;;;;;;4.05;0.80;;;;;;;10.09;100.00;102301.59;4936912;29;20059;-66
2022/10/20 10:03:51;;;;;;;3.45;0.90;;;;;;;10.12;100.00;102297.75;4920610;29;20025;-66
2022/10/20 10:06:36;;;;;;;2.70;0.90;;;;;;;10.16;100.00;102299.13;4942857;29;20027;-66
2022/10/20 10:09:02;;;;;;;2.63;0.83;;;;;;;10.16;100.00;102299.13;4954050;29;20023;-68
2022/10/20 10:11:37;;;;;;;3.05;0.80;;;;;;;10.20;100.00;102292.44;4936250;29;20424;-66
2022/10/20 10:14:03;;;;;;;2.65;0.70;;;;;;;10.24;100.00;102288.41;4954067;29;20050;-65
2022/10/20 10:16:49;;;;;;;2.10;0.88;;;;;;;10.23;100.00;102284.06;4954038;28;20054;-66
2022/10/20 10:19:21;;;;;;;1.83;0.60;;;;;;;10.26;100.00;102283.75;4878566;29;20064;-66
2022/10/20 10:21:59;;;;;;;1.98;0.60;;;;;;;10.29;100.00;102275.34;4864077;29;20037;-65
2022/10/20 10:24:37;;;;;;;1.80;0.60;;;;;;;10.32;100.00;102271.50;4894693;29;20500;-66
2022/10/20 10:27:03;;;;;;;1.27;0.60;;;;;;;10.29;100.00;102261.91;4894675;29;20066;-66
2022/10/20 10:29:33;;;;;;;1.30;0.60;;;;;;;10.31;100.00;102272.50;4894248;29;20087;-68
2022/10/20 10:32:11;;;;;;;2.08;0.80;;;;;;;10.27;100.00;102263.91;4875617;29;20040;-66
2022/10/20 10:34:59;;;;;;;1.50;0.50;;;;;;;10.38;100.00;102281.63;4885826;29;20060;-67
2022/10/20 10:37:27;;;;;;;2.42;0.70;;;;;;;10.33;100.00;102284.81;4876259;29;20029;-67
2022/10/20 10:39:52;;;;;;;1.80;0.47;;;;;;;10.30;100.00;102290.50;4894654;29;20083;-68
2022/10/20 10:42:53;;;;;;;3.22;0.80;;;;;;;10.36;100.00;102278.22;4894535;29;20068;-67
2022/10/20 10:45:29;;;;;;;2.50;0.60;;;;;;;10.38;100.00;102278.09;4875737;29;20600;-67
2022/10/20 10:48:24;;;;;;;2.38;0.80;;;;;;;10.40;100.00;102276.94;4864833;29;20035;-67
2022/10/20 10:51:04;;;;;;;2.75;0.60;;;;;;;10.34;100.00;102264.13;4917288;29;20039;-67
2022/10/20 10:53:50;;;;;;;2.67;0.50;;;;;;;10.42;100.00;102272.22;4931636;29;20048;-67
2022/10/20 10:56:22;;;;;;;0.77;0.47;;;;;;;10.44;100.00;102274.75;4927652;29;20509;-68
2022/10/20 10:59:01;;;;;;;0.52;0.40;;;;;;;10.32;100.00;102244.59;4912989;29;20048;-68
2022/10/20 11:01:36;;;;;;;1.17;0.60;;;;;;;10.44;100.00;102264.00;4929451;29;20044;-68
2022/10/20 11:04:22;;;;;;;2.65;0.47;;;;;;;10.53;100.00;102257.63;4932191;29;20039;-68
2022/10/20 11:07:26;;;;;;;1.50;0.50;;;;;;;10.52;99.21;102251.38;4931922;29;20059;-67
2022/10/20 11:10:09;;;;;;;0.82;0.40;;;;;;;10.54;99.63;102249.38;4888381;29;20039;-68
2022/10/20 11:12:48;;;;;;;2.05;0.30;;;;;;;10.49;96.83;102245.50;4931641;29;20059;-68
2022/10/20 11:15:16;;;;;;;1.65;0.52;;;;;;;10.52;96.49;102246.00;4926950;29;20438;-68
2022/10/20 11:17:59;;;;;;;0.40;0.20;;;;;;;10.52;95.25;102229.00;4911402;29;20045;-68
2022/10/20 11:20:49;;;;;;;1.77;0.35;;;;;;;10.32;94.01;102206.94;4931631;29;20493;-68
2022/10/20 11:23:15;;;;;;;1.17;0.28;;;;;;;10.53;93.61;102239.63;4953023;29;20027;-68
2022/10/20 11:25:52;;;;;;;1.42;0.20;;;;;;;10.49;91.34;102229.34;4935792;29;20118;-69
2022/10/20 11:28:43;;;;;;;0.82;0.30;;;;;;;10.31;91.10;102200.69;4952516;29;20063;-68
2022/10/20 11:31:53;;;;;;;0.60;0.30;;;;;;;10.47;88.25;102218.75;4952863;29;20062;-69
2022/10/20 11:34:47;;;;;;;1.95;0.73;;;;;;;10.56;89.78;102222.28;4950419;29;20042;-68
2022/10/20 11:37:31;;;;;;;0.50;0.25;;;;;;;10.60;89.75;102220.97;4949964;29;20499;-69
2022/10/20 11:40:23;;;;;;;0.68;0.40;;;;;;;10.56;88.53;102220.47;4938694;29;20035;-68